Charter Quote
Worldwide +1-877-727-2538 Call
Select Language Lang
SAFETY RELIABILITY EXPERIENCE

Private Jet Charter Services - Wujiaba (ZPPP)

Paramount Business Jets offers private jet charter flights and luxury airliner charters to and from Wujiaba.

AIRPORT INFORMATION
ICAOZPPP
LOCATIONKunming, China
FACILITY TYPEAIRPORT

At Paramount Business Jets you can hire chartered private jets to and from Wujiaba with as little as 4 hours of notice. All flights booked via Paramount Business Jets are operated by certified direct air carriers that meet and exceed the FAA part 135 and 121 protocol or a foreign equivalent safety authority. Furthermore, Paramount Business Jets subscribes to ARGUS for their third party safety checks of operators, aircraft, and crews prior each and every flight to and from Wujiaba and worldwide.

  • Quote a trip using Wujiaba or call us 24/7 - 365 days a year at +1-877-727-2538.
Questions? Call +1-877-727-2538

METAR Weather Data at Wujiaba, ZPPP

STATIONZPPP
OBSERVEDMon Jul 22, 09:00 UTC
NOWMon Jul 22, 09:44 UTC
AGE44 min ago
WINDSSW at 11 mph
VISIBILITY16 miles
CLOUDSovercast
TEMP68°F (20°C)
DEWPT61°F (16°C)
HUMIDITY78%
BAROMETER1014 hPa (29.94 in Hg)
METARZPPP 220900Z 21005MPS 9999 SCT023 OVC033 20/16 Q1014 NOSIG

Call us on +1-877-727-2538 (24 Hours) to Hire a Private Jet or Get a Quick Quote.

Find Airports Near any Location

Processing
...